sensor_id;sensor_type;location;lat;lon;timestamp;P1;durP1;ratioP1;P2;durP2;ratioP2
47617;SDS011;33336;36.728;-4.414;2023-01-29T00:01:54;3.55;;;2.42;;
47617;SDS011;33336;36.728;-4.414;2023-01-29T00:06:57;4.30;;;2.33;;
47617;SDS011;33336;36.728;-4.414;2023-01-29T00:12:01;3.65;;;2.55;;
47617;SDS011;33336;36.728;-4.414;2023-01-29T00:17:05;3.60;;;2.28;;
47617;SDS011;33336;36.728;-4.414;2023-01-29T00:22:09;3.45;;;2.45;;
47617;SDS011;33336;36.728;-4.414;2023-01-29T00:27:11;3.33;;;2.25;;
47617;SDS011;33336;36.728;-4.414;2023-01-29T00:32:16;4.45;;;2.42;;
47617;SDS011;33336;36.728;-4.414;2023-01-29T00:37:19;5.65;;;2.38;;
47617;SDS011;33336;36.728;-4.414;2023-01-29T00:42:23;3.35;;;1.85;;
47617;SDS011;33336;36.728;-4.414;2023-01-29T00:47:44;2.72;;;1.77;;
47617;SDS011;33336;36.728;-4.414;2023-01-29T00:52:48;3.60;;;2.35;;
47617;SDS011;33336;36.728;-4.414;2023-01-29T00:57:51;3.58;;;2.30;;
47617;SDS011;33336;36.728;-4.414;2023-01-29T01:02:55;3.28;;;2.00;;
47617;SDS011;33336;36.728;-4.414;2023-01-29T01:08:07;2.70;;;2.00;;
47617;SDS011;33336;36.728;-4.414;2023-01-29T01:13:25;5.60;;;2.80;;
47617;SDS011;33336;36.728;-4.414;2023-01-29T01:18:29;4.82;;;2.53;;
47617;SDS011;33336;36.728;-4.414;2023-01-29T01:23:33;3.20;;;2.03;;
47617;SDS011;33336;36.728;-4.414;2023-01-29T01:28:36;2.38;;;1.60;;
47617;SDS011;33336;36.728;-4.414;2023-01-29T01:33:41;3.03;;;1.92;;
47617;SDS011;33336;36.728;-4.414;2023-01-29T01:38:44;3.25;;;2.10;;
47617;SDS011;33336;36.728;-4.414;2023-01-29T01:43:47;2.50;;;2.00;;
47617;SDS011;33336;36.728;-4.414;2023-01-29T01:48:53;2.85;;;1.75;;
47617;SDS011;33336;36.728;-4.414;2023-01-29T01:54:00;3.60;;;2.25;;
47617;SDS011;33336;36.728;-4.414;2023-01-29T01:59:08;2.25;;;1.88;;
47617;SDS011;33336;36.728;-4.414;2023-01-29T02:04:15;3.28;;;2.00;;
47617;SDS011;33336;36.728;-4.414;2023-01-29T02:09:38;2.05;;;1.67;;
47617;SDS011;33336;36.728;-4.414;2023-01-29T02:19:52;4.53;;;1.65;;
47617;SDS011;33336;36.728;-4.414;2023-01-29T02:25:12;3.88;;;1.85;;
47617;SDS011;33336;36.728;-4.414;2023-01-29T02:30:34;2.95;;;1.45;;
47617;SDS011;33336;36.728;-4.414;2023-01-29T02:35:42;2.35;;;1.63;;
47617;SDS011;33336;36.728;-4.414;2023-01-29T02:40:49;3.47;;;1.80;;
47617;SDS011;33336;36.728;-4.414;2023-01-29T02:46:01;2.50;;;1.65;;
47617;SDS011;33336;36.728;-4.414;2023-01-29T02:51:14;1.95;;;1.42;;
47617;SDS011;33336;36.728;-4.414;2023-01-29T02:56:23;2.78;;;1.30;;
47617;SDS011;33336;36.728;-4.414;2023-01-29T03:01:32;3.03;;;2.05;;
47617;SDS011;33336;36.728;-4.414;2023-01-29T03:06:40;4.10;;;1.50;;
47617;SDS011;33336;36.728;-4.414;2023-01-29T03:11:47;4.45;;;1.73;;
47617;SDS011;33336;36.728;-4.414;2023-01-29T03:16:55;3.80;;;2.15;;
47617;SDS011;33336;36.728;-4.414;2023-01-29T03:21:58;4.20;;;1.73;;
47617;SDS011;33336;36.728;-4.414;2023-01-29T03:27:06;3.83;;;2.00;;
47617;SDS011;33336;36.728;-4.414;2023-01-29T03:32:31;3.03;;;2.00;;
47617;SDS011;33336;36.728;-4.414;2023-01-29T03:37:37;3.95;;;1.83;;
47617;SDS011;33336;36.728;-4.414;2023-01-29T03:42:44;2.47;;;1.50;;
47617;SDS011;33336;36.728;-4.414;2023-01-29T03:47:58;2.72;;;1.42;;
47617;SDS011;33336;36.728;-4.414;2023-01-29T03:53:08;2.63;;;1.50;;
47617;SDS011;33336;36.728;-4.414;2023-01-29T03:58:23;4.20;;;1.63;;
47617;SDS011;33336;36.728;-4.414;2023-01-29T04:03:33;2.70;;;1.40;;
47617;SDS011;33336;36.728;-4.414;2023-01-29T04:08:40;2.53;;;1.65;;
47617;SDS011;33336;36.728;-4.414;2023-01-29T04:13:49;3.35;;;1.45;;
47617;SDS011;33336;36.728;-4.414;2023-01-29T04:18:55;1.85;;;1.20;;
47617;SDS011;33336;36.728;-4.414;2023-01-29T04:23:58;1.73;;;1.08;;
47617;SDS011;33336;36.728;-4.414;2023-01-29T04:29:06;3.15;;;1.25;;
47617;SDS011;33336;36.728;-4.414;2023-01-29T04:34:19;2.42;;;1.52;;
47617;SDS011;33336;36.728;-4.414;2023-01-29T04:39:30;2.53;;;1.58;;
47617;SDS011;33336;36.728;-4.414;2023-01-29T04:44:42;2.03;;;1.08;;
47617;SDS011;33336;36.728;-4.414;2023-01-29T04:49:55;5.80;;;1.70;;
47617;SDS011;33336;36.728;-4.414;2023-01-29T04:55:03;2.33;;;1.42;;
47617;SDS011;33336;36.728;-4.414;2023-01-29T05:00:11;1.83;;;1.15;;
47617;SDS011;33336;36.728;-4.414;2023-01-29T05:05:20;3.17;;;1.73;;
47617;SDS011;33336;36.728;-4.414;2023-01-29T05:10:24;1.92;;;1.40;;
47617;SDS011;33336;36.728;-4.414;2023-01-29T05:15:29;2.00;;;1.40;;
47617;SDS011;33336;36.728;-4.414;2023-01-29T05:20:38;2.80;;;2.10;;
47617;SDS011;33336;36.728;-4.414;2023-01-29T05:25:44;4.22;;;1.52;;
47617;SDS011;33336;36.728;-4.414;2023-01-29T05:30:48;2.10;;;1.25;;
47617;SDS011;33336;36.728;-4.414;2023-01-29T05:35:54;2.67;;;1.85;;
47617;SDS011;33336;36.728;-4.414;2023-01-29T05:40:57;2.28;;;1.30;;
47617;SDS011;33336;36.728;-4.414;2023-01-29T05:46:00;3.85;;;1.23;;
47617;SDS011;33336;36.728;-4.414;2023-01-29T05:51:05;1.85;;;1.42;;
47617;SDS011;33336;36.728;-4.414;2023-01-29T05:56:08;1.63;;;0.95;;
47617;SDS011;33336;36.728;-4.414;2023-01-29T06:01:13;2.72;;;1.25;;
47617;SDS011;33336;36.728;-4.414;2023-01-29T06:06:18;2.25;;;1.33;;
47617;SDS011;33336;36.728;-4.414;2023-01-29T06:11:21;2.80;;;1.20;;
47617;SDS011;33336;36.728;-4.414;2023-01-29T06:16:24;3.00;;;1.25;;
47617;SDS011;33336;36.728;-4.414;2023-01-29T06:21:29;4.95;;;1.35;;
47617;SDS011;33336;36.728;-4.414;2023-01-29T06:26:32;2.85;;;1.40;;
47617;SDS011;33336;36.728;-4.414;2023-01-29T06:31:35;3.33;;;1.25;;
47617;SDS011;33336;36.728;-4.414;2023-01-29T06:36:40;2.80;;;1.20;;
47617;SDS011;33336;36.728;-4.414;2023-01-29T06:41:43;3.10;;;1.17;;
47617;SDS011;33336;36.728;-4.414;2023-01-29T06:46:46;4.10;;;1.15;;
47617;SDS011;33336;36.728;-4.414;2023-01-29T06:51:51;2.55;;;1.20;;
47617;SDS011;33336;36.728;-4.414;2023-01-29T06:56:54;1.88;;;1.30;;
47617;SDS011;33336;36.728;-4.414;2023-01-29T07:01:56;4.28;;;1.40;;
47617;SDS011;33336;36.728;-4.414;2023-01-29T07:07:01;2.08;;;1.30;;
47617;SDS011;33336;36.728;-4.414;2023-01-29T07:12:05;1.40;;;1.02;;
47617;SDS011;33336;36.728;-4.414;2023-01-29T07:17:08;2.58;;;1.38;;
47617;SDS011;33336;36.728;-4.414;2023-01-29T07:22:13;2.30;;;1.58;;
47617;SDS011;33336;36.728;-4.414;2023-01-29T07:27:16;1.80;;;1.20;;
47617;SDS011;33336;36.728;-4.414;2023-01-29T07:32:19;2.40;;;1.15;;
47617;SDS011;33336;36.728;-4.414;2023-01-29T07:37:24;1.80;;;0.88;;
47617;SDS011;33336;36.728;-4.414;2023-01-29T07:42:26;3.67;;;1.38;;
47617;SDS011;33336;36.728;-4.414;2023-01-29T07:47:29;1.83;;;1.30;;
47617;SDS011;33336;36.728;-4.414;2023-01-29T07:52:34;3.65;;;1.40;;
47617;SDS011;33336;36.728;-4.414;2023-01-29T07:57:37;5.88;;;1.85;;
47617;SDS011;33336;36.728;-4.414;2023-01-29T08:02:40;2.80;;;1.60;;
47617;SDS011;33336;36.728;-4.414;2023-01-29T08:07:45;2.05;;;1.38;;
47617;SDS011;33336;36.728;-4.414;2023-01-29T08:12:54;2.08;;;1.65;;
47617;SDS011;33336;36.728;-4.414;2023-01-29T08:17:59;2.00;;;1.30;;
47617;SDS011;33336;36.728;-4.414;2023-01-29T08:23:06;2.45;;;1.58;;
47617;SDS011;33336;36.728;-4.414;2023-01-29T08:28:13;4.80;;;1.80;;
47617;SDS011;33336;36.728;-4.414;2023-01-29T08:33:16;3.83;;;2.20;;
47617;SDS011;33336;36.728;-4.414;2023-01-29T08:38:21;3.42;;;2.10;;
47617;SDS011;33336;36.728;-4.414;2023-01-29T08:43:23;2.85;;;1.40;;
47617;SDS011;33336;36.728;-4.414;2023-01-29T08:48:26;4.82;;;1.98;;
47617;SDS011;33336;36.728;-4.414;2023-01-29T08:53:31;5.90;;;1.95;;
47617;SDS011;33336;36.728;-4.414;2023-01-29T08:58:34;3.50;;;2.28;;
47617;SDS011;33336;36.728;-4.414;2023-01-29T09:03:37;2.38;;;1.60;;
47617;SDS011;33336;36.728;-4.414;2023-01-29T09:08:44;3.60;;;1.90;;
47617;SDS011;33336;36.728;-4.414;2023-01-29T09:13:47;2.50;;;1.70;;
47617;SDS011;33336;36.728;-4.414;2023-01-29T09:18:51;7.22;;;1.90;;
47617;SDS011;33336;36.728;-4.414;2023-01-29T09:23:56;3.75;;;1.75;;
47617;SDS011;33336;36.728;-4.414;2023-01-29T09:28:59;2.42;;;1.80;;
47617;SDS011;33336;36.728;-4.414;2023-01-29T09:34:01;4.13;;;1.77;;
47617;SDS011;33336;36.728;-4.414;2023-01-29T09:39:06;3.08;;;1.73;;
47617;SDS011;33336;36.728;-4.414;2023-01-29T09:44:12;5.25;;;1.90;;
47617;SDS011;33336;36.728;-4.414;2023-01-29T09:49:22;3.53;;;2.10;;
47617;SDS011;33336;36.728;-4.414;2023-01-29T09:54:31;4.97;;;3.17;;
47617;SDS011;33336;36.728;-4.414;2023-01-29T09:59:43;12.40;;;3.72;;
47617;SDS011;33336;36.728;-4.414;2023-01-29T10:05:01;6.22;;;3.58;;
47617;SDS011;33336;36.728;-4.414;2023-01-29T10:10:37;6.07;;;3.28;;
47617;SDS011;33336;36.728;-4.414;2023-01-29T10:15:52;4.88;;;3.17;;
47617;SDS011;33336;36.728;-4.414;2023-01-29T10:21:08;5.35;;;3.30;;
47617;SDS011;33336;36.728;-4.414;2023-01-29T10:26:23;5.90;;;2.63;;
47617;SDS011;33336;36.728;-4.414;2023-01-29T10:31:29;10.98;;;2.75;;
47617;SDS011;33336;36.728;-4.414;2023-01-29T10:36:34;5.78;;;3.22;;
47617;SDS011;33336;36.728;-4.414;2023-01-29T10:41:51;6.43;;;2.72;;
47617;SDS011;33336;36.728;-4.414;2023-01-29T10:47:10;4.75;;;2.47;;
47617;SDS011;33336;36.728;-4.414;2023-01-29T10:52:38;6.18;;;3.03;;
47617;SDS011;33336;36.728;-4.414;2023-01-29T10:57:59;7.63;;;2.67;;
47617;SDS011;33336;36.728;-4.414;2023-01-29T11:03:12;6.07;;;2.63;;
47617;SDS011;33336;36.728;-4.414;2023-01-29T11:08:18;6.22;;;1.98;;
47617;SDS011;33336;36.728;-4.414;2023-01-29T11:13:25;5.30;;;2.35;;
47617;SDS011;33336;36.728;-4.414;2023-01-29T11:18:50;3.90;;;2.30;;
47617;SDS011;33336;36.728;-4.414;2023-01-29T11:24:05;3.65;;;2.17;;
47617;SDS011;33336;36.728;-4.414;2023-01-29T11:29:38;3.47;;;1.90;;
47617;SDS011;33336;36.728;-4.414;2023-01-29T11:34:55;4.70;;;2.13;;
47617;SDS011;33336;36.728;-4.414;2023-01-29T11:40:28;4.03;;;1.80;;
47617;SDS011;33336;36.728;-4.414;2023-01-29T11:45:37;3.67;;;1.98;;
47617;SDS011;33336;36.728;-4.414;2023-01-29T11:50:41;5.80;;;1.98;;
47617;SDS011;33336;36.728;-4.414;2023-01-29T11:55:45;3.45;;;1.80;;
47617;SDS011;33336;36.728;-4.414;2023-01-29T12:00:50;3.13;;;1.85;;
47617;SDS011;33336;36.728;-4.414;2023-01-29T12:05:55;9.85;;;1.80;;
47617;SDS011;33336;36.728;-4.414;2023-01-29T12:11:09;3.30;;;1.25;;
47617;SDS011;33336;36.728;-4.414;2023-01-29T12:16:20;5.25;;;1.52;;
47617;SDS011;33336;36.728;-4.414;2023-01-29T12:21:29;4.03;;;1.23;;
47617;SDS011;33336;36.728;-4.414;2023-01-29T12:26:37;3.17;;;1.63;;
47617;SDS011;33336;36.728;-4.414;2023-01-29T12:31:48;4.70;;;1.52;;
47617;SDS011;33336;36.728;-4.414;2023-01-29T12:36:58;1.33;;;1.23;;
47617;SDS011;33336;36.728;-4.414;2023-01-29T12:42:13;2.85;;;1.63;;
47617;SDS011;33336;36.728;-4.414;2023-01-29T12:47:22;2.88;;;1.65;;
47617;SDS011;33336;36.728;-4.414;2023-01-29T12:52:33;3.80;;;1.70;;
47617;SDS011;33336;36.728;-4.414;2023-01-29T12:57:41;4.18;;;1.33;;
47617;SDS011;33336;36.728;-4.414;2023-01-29T13:02:51;4.30;;;1.70;;
47617;SDS011;33336;36.728;-4.414;2023-01-29T13:07:59;3.50;;;1.40;;
47617;SDS011;33336;36.728;-4.414;2023-01-29T13:13:10;4.85;;;1.50;;
47617;SDS011;33336;36.728;-4.414;2023-01-29T13:18:32;1.85;;;1.08;;
47617;SDS011;33336;36.728;-4.414;2023-01-29T13:23:43;6.72;;;1.33;;
47617;SDS011;33336;36.728;-4.414;2023-01-29T13:28:48;4.40;;;1.35;;
47617;SDS011;33336;36.728;-4.414;2023-01-29T13:33:59;2.95;;;1.10;;
47617;SDS011;33336;36.728;-4.414;2023-01-29T13:39:14;4.90;;;1.10;;
47617;SDS011;33336;36.728;-4.414;2023-01-29T13:44:23;1.83;;;0.90;;
47617;SDS011;33336;36.728;-4.414;2023-01-29T13:49:32;1.83;;;1.05;;
47617;SDS011;33336;36.728;-4.414;2023-01-29T13:54:38;3.17;;;0.98;;
47617;SDS011;33336;36.728;-4.414;2023-01-29T13:59:48;1.60;;;0.70;;
47617;SDS011;33336;36.728;-4.414;2023-01-29T14:10:35;3.20;;;1.08;;
47617;SDS011;33336;36.728;-4.414;2023-01-29T14:15:39;1.90;;;1.20;;
47617;SDS011;33336;36.728;-4.414;2023-01-29T14:26:19;1.83;;;1.38;;
47617;SDS011;33336;36.728;-4.414;2023-01-29T14:31:27;4.30;;;1.38;;
47617;SDS011;33336;36.728;-4.414;2023-01-29T14:36:37;5.13;;;1.70;;
47617;SDS011;33336;36.728;-4.414;2023-01-29T14:41:42;3.00;;;1.08;;
47617;SDS011;33336;36.728;-4.414;2023-01-29T14:46:51;2.45;;;1.35;;
47617;SDS011;33336;36.728;-4.414;2023-01-29T14:51:54;2.35;;;1.27;;
47617;SDS011;33336;36.728;-4.414;2023-01-29T14:57:01;3.72;;;1.42;;
47617;SDS011;33336;36.728;-4.414;2023-01-29T15:02:10;1.90;;;1.00;;
47617;SDS011;33336;36.728;-4.414;2023-01-29T15:07:22;3.78;;;1.20;;
47617;SDS011;33336;36.728;-4.414;2023-01-29T15:12:34;2.75;;;1.23;;
47617;SDS011;33336;36.728;-4.414;2023-01-29T15:17:48;2.20;;;1.40;;
47617;SDS011;33336;36.728;-4.414;2023-01-29T15:22:57;4.20;;;1.00;;
47617;SDS011;33336;36.728;-4.414;2023-01-29T15:28:04;2.05;;;1.13;;
47617;SDS011;33336;36.728;-4.414;2023-01-29T15:33:12;2.30;;;1.10;;
47617;SDS011;33336;36.728;-4.414;2023-01-29T15:38:17;3.17;;;1.20;;
47617;SDS011;33336;36.728;-4.414;2023-01-29T15:48:28;8.37;;;1.60;;
47617;SDS011;33336;36.728;-4.414;2023-01-29T15:53:34;3.75;;;0.85;;
47617;SDS011;33336;36.728;-4.414;2023-01-29T15:58:40;3.15;;;1.10;;
47617;SDS011;33336;36.728;-4.414;2023-01-29T16:03:43;2.83;;;1.30;;
47617;SDS011;33336;36.728;-4.414;2023-01-29T16:08:47;3.63;;;1.45;;
47617;SDS011;33336;36.728;-4.414;2023-01-29T16:18:57;4.63;;;2.47;;
47617;SDS011;33336;36.728;-4.414;2023-01-29T16:24:02;2.35;;;1.77;;
47617;SDS011;33336;36.728;-4.414;2023-01-29T16:29:12;5.78;;;1.80;;
47617;SDS011;33336;36.728;-4.414;2023-01-29T16:34:18;4.43;;;1.40;;
47617;SDS011;33336;36.728;-4.414;2023-01-29T16:39:27;4.57;;;1.42;;
47617;SDS011;33336;36.728;-4.414;2023-01-29T16:44:35;3.83;;;1.42;;
47617;SDS011;33336;36.728;-4.414;2023-01-29T16:54:47;9.27;;;1.50;;
47617;SDS011;33336;36.728;-4.414;2023-01-29T16:59:53;6.47;;;1.95;;
47617;SDS011;33336;36.728;-4.414;2023-01-29T17:04:59;5.18;;;1.70;;
47617;SDS011;33336;36.728;-4.414;2023-01-29T17:10:06;4.43;;;1.95;;
47617;SDS011;33336;36.728;-4.414;2023-01-29T17:20:43;4.65;;;1.77;;
47617;SDS011;33336;36.728;-4.414;2023-01-29T17:25:46;4.63;;;1.40;;
47617;SDS011;33336;36.728;-4.414;2023-01-29T17:30:51;2.95;;;1.85;;
47617;SDS011;33336;36.728;-4.414;2023-01-29T17:35:54;2.92;;;1.60;;
47617;SDS011;33336;36.728;-4.414;2023-01-29T17:40:58;2.65;;;1.20;;
47617;SDS011;33336;36.728;-4.414;2023-01-29T17:46:08;2.58;;;1.50;;
47617;SDS011;33336;36.728;-4.414;2023-01-29T17:51:15;7.32;;;1.63;;
47617;SDS011;33336;36.728;-4.414;2023-01-29T17:56:20;1.15;;;0.75;;
47617;SDS011;33336;36.728;-4.414;2023-01-29T18:06:31;2.30;;;0.80;;
47617;SDS011;33336;36.728;-4.414;2023-01-29T18:11:34;1.40;;;0.80;;
47617;SDS011;33336;36.728;-4.414;2023-01-29T18:16:38;1.33;;;0.80;;
47617;SDS011;33336;36.728;-4.414;2023-01-29T18:21:42;1.60;;;1.10;;
47617;SDS011;33336;36.728;-4.414;2023-01-29T18:26:45;2.38;;;0.80;;
47617;SDS011;33336;36.728;-4.414;2023-01-29T18:31:50;2.88;;;1.20;;
47617;SDS011;33336;36.728;-4.414;2023-01-29T18:36:52;1.30;;;0.82;;
47617;SDS011;33336;36.728;-4.414;2023-01-29T18:41:56;1.27;;;0.80;;
47617;SDS011;33336;36.728;-4.414;2023-01-29T18:47:00;2.20;;;0.80;;
47617;SDS011;33336;36.728;-4.414;2023-01-29T18:52:05;1.08;;;0.75;;
47617;SDS011;33336;36.728;-4.414;2023-01-29T18:57:08;0.90;;;0.70;;
47617;SDS011;33336;36.728;-4.414;2023-01-29T19:02:14;1.85;;;1.02;;
47617;SDS011;33336;36.728;-4.414;2023-01-29T19:07:18;1.30;;;0.82;;
47617;SDS011;33336;36.728;-4.414;2023-01-29T19:12:22;2.13;;;1.25;;
47617;SDS011;33336;36.728;-4.414;2023-01-29T19:17:26;3.38;;;2.28;;
47617;SDS011;33336;36.728;-4.414;2023-01-29T19:22:30;2.67;;;2.15;;
47617;SDS011;33336;36.728;-4.414;2023-01-29T19:27:33;2.55;;;1.63;;
47617;SDS011;33336;36.728;-4.414;2023-01-29T19:32:39;4.25;;;2.25;;
47617;SDS011;33336;36.728;-4.414;2023-01-29T19:37:42;3.40;;;2.22;;
47617;SDS011;33336;36.728;-4.414;2023-01-29T19:42:45;2.67;;;2.33;;
47617;SDS011;33336;36.728;-4.414;2023-01-29T19:47:50;2.90;;;1.92;;
47617;SDS011;33336;36.728;-4.414;2023-01-29T19:52:55;2.05;;;1.52;;
47617;SDS011;33336;36.728;-4.414;2023-01-29T19:57:58;2.72;;;1.63;;
47617;SDS011;33336;36.728;-4.414;2023-01-29T20:03:05;3.30;;;2.30;;
47617;SDS011;33336;36.728;-4.414;2023-01-29T20:08:07;1.92;;;1.42;;
47617;SDS011;33336;36.728;-4.414;2023-01-29T20:13:10;1.27;;;0.93;;
47617;SDS011;33336;36.728;-4.414;2023-01-29T20:18:15;3.40;;;2.13;;
47617;SDS011;33336;36.728;-4.414;2023-01-29T20:23:19;1.55;;;1.35;;
47617;SDS011;33336;36.728;-4.414;2023-01-29T20:28:23;2.83;;;1.52;;
47617;SDS011;33336;36.728;-4.414;2023-01-29T20:33:27;1.80;;;1.40;;
47617;SDS011;33336;36.728;-4.414;2023-01-29T20:38:31;3.85;;;1.70;;
47617;SDS011;33336;36.728;-4.414;2023-01-29T20:43:35;2.92;;;1.35;;
47617;SDS011;33336;36.728;-4.414;2023-01-29T20:48:39;3.53;;;1.48;;
47617;SDS011;33336;36.728;-4.414;2023-01-29T20:53:44;3.47;;;1.60;;
47617;SDS011;33336;36.728;-4.414;2023-01-29T20:58:48;4.07;;;1.45;;
47617;SDS011;33336;36.728;-4.414;2023-01-29T21:03:52;2.30;;;1.20;;
47617;SDS011;33336;36.728;-4.414;2023-01-29T21:08:55;2.92;;;1.30;;
47617;SDS011;33336;36.728;-4.414;2023-01-29T21:13:58;6.45;;;2.53;;
47617;SDS011;33336;36.728;-4.414;2023-01-29T21:19:02;2.70;;;1.70;;
47617;SDS011;33336;36.728;-4.414;2023-01-29T21:24:06;4.10;;;1.90;;
47617;SDS011;33336;36.728;-4.414;2023-01-29T21:29:11;2.78;;;1.77;;
47617;SDS011;33336;36.728;-4.414;2023-01-29T21:34:16;3.83;;;2.10;;
47617;SDS011;33336;36.728;-4.414;2023-01-29T21:39:20;2.90;;;1.40;;
47617;SDS011;33336;36.728;-4.414;2023-01-29T21:44:25;4.97;;;1.25;;
47617;SDS011;33336;36.728;-4.414;2023-01-29T21:49:29;3.10;;;1.30;;
47617;SDS011;33336;36.728;-4.414;2023-01-29T21:54:32;2.63;;;0.90;;
47617;SDS011;33336;36.728;-4.414;2023-01-29T21:59:36;4.18;;;1.40;;
47617;SDS011;33336;36.728;-4.414;2023-01-29T22:04:40;2.42;;;1.25;;
47617;SDS011;33336;36.728;-4.414;2023-01-29T22:09:43;6.38;;;1.23;;
47617;SDS011;33336;36.728;-4.414;2023-01-29T22:14:47;1.30;;;0.90;;
47617;SDS011;33336;36.728;-4.414;2023-01-29T22:19:51;1.63;;;0.80;;
47617;SDS011;33336;36.728;-4.414;2023-01-29T22:24:55;1.80;;;0.75;;
47617;SDS011;33336;36.728;-4.414;2023-01-29T22:29:58;2.05;;;0.95;;
47617;SDS011;33336;36.728;-4.414;2023-01-29T22:35:04;2.00;;;1.08;;
47617;SDS011;33336;36.728;-4.414;2023-01-29T22:40:08;3.35;;;1.40;;
47617;SDS011;33336;36.728;-4.414;2023-01-29T22:45:12;2.47;;;1.70;;
47617;SDS011;33336;36.728;-4.414;2023-01-29T22:50:17;3.30;;;1.60;;
47617;SDS011;33336;36.728;-4.414;2023-01-29T22:55:20;4.10;;;1.30;;
47617;SDS011;33336;36.728;-4.414;2023-01-29T23:00:23;1.50;;;1.00;;
47617;SDS011;33336;36.728;-4.414;2023-01-29T23:05:27;1.73;;;1.30;;
47617;SDS011;33336;36.728;-4.414;2023-01-29T23:10:30;3.50;;;1.40;;
47617;SDS011;33336;36.728;-4.414;2023-01-29T23:15:33;2.05;;;1.40;;
47617;SDS011;33336;36.728;-4.414;2023-01-29T23:20:37;5.97;;;1.48;;
47617;SDS011;33336;36.728;-4.414;2023-01-29T23:25:41;5.03;;;1.60;;
47617;SDS011;33336;36.728;-4.414;2023-01-29T23:31:01;3.40;;;1.85;;
47617;SDS011;33336;36.728;-4.414;2023-01-29T23:36:07;2.20;;;1.88;;
47617;SDS011;33336;36.728;-4.414;2023-01-29T23:41:10;4.55;;;1.30;;
47617;SDS011;33336;36.728;-4.414;2023-01-29T23:46:13;3.58;;;1.20;;
47617;SDS011;33336;36.728;-4.414;2023-01-29T23:51:17;1.35;;;0.90;;
47617;SDS011;33336;36.728;-4.414;2023-01-29T23:56:21;1.63;;;0.85;;
